Xirivella, Spain
Current Conditions -  °F | °C
As of 1:30 AM on Thursday 23 Oct 2014 (Local Time) from LEVC Reporting Station
Clear Clear  
Wind Chill: 57°   Ceiling: Unl
Heat Index: 57°   Visibility: 6mi
Dew Point: 52°   Wind: 1mph
Humidity: 82%   Direction: NA
Pressure: 30.24"   Gusts: NA
Location:  39.47°N, 0.43°W
Report Text: LEVC 222330Z VRB01KT CAVOK 14/11 Q1024 NOSIG
Loading
Personal Weather Stations






























Interactive Weather Map
Tropical Storm Tracking
New forecast layout! Learn more

10-Day Weather Forecast

Advertisements
Track Severe Weather on mobile